createdAt,value
2022-12-16T00:01:07.938Z,-2.87
2022-12-16T00:03:37.083Z,-2.89
2022-12-16T00:06:04.926Z,-2.90
2022-12-16T00:08:33.710Z,-2.89
2022-12-16T00:11:01.903Z,-2.90
2022-12-16T00:13:32.465Z,-2.90
2022-12-16T00:16:00.726Z,-2.90
2022-12-16T00:18:28.368Z,-2.90
2022-12-16T00:20:56.397Z,-2.90
2022-12-16T00:23:24.133Z,-2.91
2022-12-16T00:25:52.001Z,-2.91
2022-12-16T00:28:23.307Z,-2.93
2022-12-16T00:30:53.062Z,-2.94
2022-12-16T00:33:24.550Z,-2.94
2022-12-16T00:35:52.529Z,-2.95
2022-12-16T00:38:21.425Z,-2.94
2022-12-16T00:40:49.132Z,-2.96
2022-12-16T00:43:17.014Z,-2.96
2022-12-16T00:45:44.625Z,-2.97
2022-12-16T00:48:13.972Z,-2.97
2022-12-16T00:50:41.943Z,-2.98
2022-12-16T00:53:09.776Z,-2.98
2022-12-16T00:55:37.296Z,-2.97
2022-12-16T00:58:04.960Z,-2.98
2022-12-16T01:00:32.550Z,-2.99
2022-12-16T01:03:00.388Z,-3.00
2022-12-16T01:05:29.403Z,-2.99
2022-12-16T01:07:57.274Z,-3.01
2022-12-16T01:10:25.765Z,-3.01
2022-12-16T01:12:53.416Z,-3.01
2022-12-16T01:15:22.847Z,-3.02
2022-12-16T01:17:50.480Z,-3.02
2022-12-16T01:20:18.270Z,-3.02
2022-12-16T01:22:47.391Z,-3.03
2022-12-16T01:25:15.433Z,-3.03
2022-12-16T01:27:43.012Z,-3.04
2022-12-16T01:30:11.528Z,-3.04
2022-12-16T01:32:39.128Z,-3.04
2022-12-16T01:35:18.109Z,-3.05
2022-12-16T01:37:56.140Z,-3.05
2022-12-16T01:40:25.655Z,-3.05
2022-12-16T01:42:53.265Z,-3.06
2022-12-16T01:45:30.691Z,-3.06
2022-12-16T01:48:00.039Z,-3.07
2022-12-16T01:50:29.552Z,-3.09
2022-12-16T01:53:01.231Z,-3.09
2022-12-16T01:55:30.949Z,-3.10
2022-12-16T01:58:00.668Z,-3.11
2022-12-16T02:00:28.218Z,-3.11
2022-12-16T02:02:56.716Z,-3.12
2022-12-16T02:05:24.942Z,-3.12
2022-12-16T02:07:55.977Z,-3.13
2022-12-16T02:10:28.876Z,-3.12
2022-12-16T02:13:00.412Z,-3.12
2022-12-16T02:15:36.763Z,-3.11
2022-12-16T02:18:10.569Z,-3.12
2022-12-16T02:20:47.809Z,-3.12
2022-12-16T02:23:32.100Z,-3.12
2022-12-16T02:26:12.335Z,-3.11
2022-12-16T02:28:46.611Z,-3.11
2022-12-16T02:31:20.475Z,-3.10
2022-12-16T02:33:53.472Z,-3.10
2022-12-16T02:36:26.507Z,-3.10
2022-12-16T02:38:57.935Z,-3.11
2022-12-16T02:41:29.286Z,-3.13
2022-12-16T02:43:59.642Z,-3.13
2022-12-16T02:46:30.159Z,-3.13
2022-12-16T02:48:57.889Z,-3.13
2022-12-16T02:51:27.158Z,-3.14
2022-12-16T02:53:56.650Z,-3.13
2022-12-16T02:56:31.549Z,-3.15
2022-12-16T02:59:07.348Z,-3.15
2022-12-16T03:01:40.715Z,-3.17
2022-12-16T03:04:11.986Z,-3.18
2022-12-16T03:06:42.071Z,-3.18
2022-12-16T03:09:12.095Z,-3.20
2022-12-16T03:11:42.980Z,-3.21
2022-12-16T03:14:13.586Z,-3.21
2022-12-16T03:16:43.102Z,-3.23
2022-12-16T03:19:12.517Z,-3.24
2022-12-16T03:21:44.869Z,-3.25
2022-12-16T03:24:13.816Z,-3.27
2022-12-16T03:26:44.715Z,-3.26
2022-12-16T03:29:15.392Z,-3.26
2022-12-16T03:31:47.649Z,-3.28
2022-12-16T03:34:17.708Z,-3.30
2022-12-16T03:36:48.775Z,-3.30
2022-12-16T03:39:16.672Z,-3.31
2022-12-16T03:41:44.889Z,-3.31
2022-12-16T03:44:13.029Z,-3.31
2022-12-16T03:46:40.887Z,-3.34
2022-12-16T03:49:09.898Z,-3.35
2022-12-16T03:51:37.586Z,-3.35
2022-12-16T03:54:05.314Z,-3.36
2022-12-16T03:56:32.961Z,-3.37
2022-12-16T03:59:00.866Z,-3.37
2022-12-16T04:01:28.793Z,-3.38
2022-12-16T04:03:56.586Z,-3.40
2022-12-16T04:06:25.576Z,-3.40
2022-12-16T04:08:53.313Z,-3.41
2022-12-16T04:11:38.150Z,-3.41
2022-12-16T04:14:23.376Z,-3.42
2022-12-16T04:17:08.679Z,-3.44
2022-12-16T04:19:55.713Z,-3.44
2022-12-16T04:22:39.959Z,-3.45
2022-12-16T04:25:09.145Z,-3.47
2022-12-16T04:27:36.858Z,-3.45
2022-12-16T04:30:20.380Z,-3.46
2022-12-16T04:33:07.080Z,-3.47
2022-12-16T04:35:52.221Z,-3.47
2022-12-16T04:38:38.720Z,-3.46
2022-12-16T04:41:23.856Z,-3.45
2022-12-16T04:44:09.011Z,-3.44
2022-12-16T04:46:54.571Z,-3.44
2022-12-16T04:49:39.811Z,-3.44
2022-12-16T04:52:25.059Z,-3.42
2022-12-16T04:55:11.625Z,-3.41
2022-12-16T04:57:56.704Z,-3.42
2022-12-16T05:00:41.854Z,-3.42
2022-12-16T05:03:38.833Z,-3.40
2022-12-16T05:06:23.997Z,-3.40
2022-12-16T05:09:09.022Z,-3.41
2022-12-16T05:11:55.749Z,-3.42
2022-12-16T05:14:40.902Z,-3.44
2022-12-16T05:17:26.282Z,-3.45
2022-12-16T05:20:11.133Z,-3.44
2022-12-16T05:22:56.190Z,-3.45
2022-12-16T05:25:41.184Z,-3.47
2022-12-16T05:28:28.690Z,-3.49
2022-12-16T05:31:14.020Z,-3.49
2022-12-16T05:33:58.889Z,-3.49
2022-12-16T05:36:55.290Z,-3.50
2022-12-16T05:39:40.405Z,-3.49
2022-12-16T05:42:25.550Z,-3.50
2022-12-16T05:45:12.301Z,-3.49
2022-12-16T05:47:58.244Z,-3.48
2022-12-16T05:50:43.230Z,-3.47
2022-12-16T05:53:34.513Z,-3.46
2022-12-16T05:56:19.622Z,-3.45
2022-12-16T05:59:05.198Z,-3.45
2022-12-16T06:01:52.105Z,-3.45
2022-12-16T06:04:37.279Z,-3.44
2022-12-16T06:07:22.585Z,-3.43
2022-12-16T06:10:07.759Z,-3.43
2022-12-16T06:12:53.090Z,-3.41
2022-12-16T06:15:38.112Z,-3.42
2022-12-16T06:18:24.898Z,-3.41
2022-12-16T06:21:10.159Z,-3.41
2022-12-16T06:23:55.263Z,-3.41
2022-12-16T06:26:40.256Z,-3.41
2022-12-16T06:29:23.720Z,-3.41
2022-12-16T06:32:05.320Z,-3.40
2022-12-16T06:34:51.792Z,-3.39
2022-12-16T06:37:36.903Z,-3.39
2022-12-16T06:40:22.067Z,-3.38
2022-12-16T06:43:07.118Z,-3.38
2022-12-16T06:45:52.120Z,-3.38
2022-12-16T06:48:37.336Z,-3.38
2022-12-16T06:51:24.202Z,-3.37
2022-12-16T06:54:09.442Z,-3.37
2022-12-16T06:56:54.465Z,-3.38
2022-12-16T06:59:39.373Z,-3.39
2022-12-16T07:02:27.075Z,-3.38
2022-12-16T07:05:12.537Z,-3.39
2022-12-16T07:08:05.016Z,-3.40
2022-12-16T07:10:50.255Z,-3.42
2022-12-16T07:13:35.670Z,-3.44
2022-12-16T07:16:20.691Z,-3.45
2022-12-16T07:19:05.695Z,-3.47
2022-12-16T07:21:47.211Z,-3.47
2022-12-16T07:24:33.751Z,-3.45
2022-12-16T07:27:19.035Z,-3.45
2022-12-16T07:30:04.046Z,-3.45
2022-12-16T07:32:49.330Z,-3.45
2022-12-16T07:35:34.597Z,-3.45
2022-12-16T07:38:19.018Z,-3.44
2022-12-16T07:41:06.020Z,-3.44
2022-12-16T07:43:51.203Z,-3.43
2022-12-16T07:46:36.285Z,-3.43
2022-12-16T07:49:21.324Z,-3.43
2022-12-16T07:52:06.244Z,-3.43
2022-12-16T07:54:51.371Z,-3.43
2022-12-16T07:57:38.017Z,-3.42
2022-12-16T08:00:23.494Z,-3.42
2022-12-16T08:03:10.805Z,-3.41
2022-12-16T08:05:56.047Z,-3.40
2022-12-16T08:08:41.191Z,-3.39
2022-12-16T08:11:26.516Z,-3.37
2022-12-16T08:14:13.157Z,-3.36
2022-12-16T08:16:58.595Z,-3.37
2022-12-16T08:19:43.913Z,-3.36
2022-12-16T08:22:29.408Z,-3.35
2022-12-16T08:25:14.448Z,-3.34
2022-12-16T08:27:59.814Z,-3.35
2022-12-16T08:30:46.262Z,-3.33
2022-12-16T08:33:32.025Z,-3.32
2022-12-16T08:36:17.565Z,-3.31
2022-12-16T08:39:02.560Z,-3.29
2022-12-16T08:41:47.867Z,-3.27
2022-12-16T08:44:32.984Z,-3.26
2022-12-16T08:47:19.474Z,-3.25
2022-12-16T08:50:04.582Z,-3.22
2022-12-16T08:52:49.788Z,-3.18
2022-12-16T08:55:35.095Z,-3.15
2022-12-16T08:58:20.175Z,-3.12
2022-12-16T09:01:07.786Z,-3.07
2022-12-16T09:03:54.876Z,-3.02
2022-12-16T09:06:41.137Z,-2.97
2022-12-16T09:09:26.639Z,-2.91
2022-12-16T09:12:11.770Z,-2.87
2022-12-16T09:14:56.976Z,-2.80
2022-12-16T09:17:42.180Z,-2.74
2022-12-16T09:20:28.884Z,-2.68
2022-12-16T09:23:14.263Z,-2.62
2022-12-16T09:25:59.326Z,-2.57
2022-12-16T09:28:44.522Z,-2.54
2022-12-16T09:31:29.725Z,-2.49
2022-12-16T09:34:14.679Z,-2.45
2022-12-16T09:37:03.254Z,-2.40
2022-12-16T09:39:48.359Z,-2.35
2022-12-16T09:42:39.602Z,-2.27
2022-12-16T09:45:26.326Z,-2.19
2022-12-16T09:48:16.757Z,-2.12
2022-12-16T09:51:03.090Z,-2.04
2022-12-16T09:53:53.051Z,-1.97
2022-12-16T09:56:41.221Z,-1.89
2022-12-16T09:59:29.964Z,-1.81
2022-12-16T10:02:15.606Z,-1.74
2022-12-16T10:05:01.643Z,-1.68
2022-12-16T10:07:49.736Z,-1.61
2022-12-16T10:10:44.320Z,-1.54
2022-12-16T10:13:36.770Z,-1.47
2022-12-16T10:16:27.152Z,-1.41
2022-12-16T10:19:16.841Z,-1.36
2022-12-16T10:22:06.827Z,-1.32
2022-12-16T10:24:56.819Z,-1.28
2022-12-16T10:27:48.822Z,-1.24
2022-12-16T10:30:34.268Z,-1.20
2022-12-16T10:33:20.563Z,-1.13
2022-12-16T10:36:08.043Z,-1.10
2022-12-16T10:38:56.797Z,-1.05
2022-12-16T10:41:43.979Z,-1.00
2022-12-16T10:44:37.158Z,-0.95
2022-12-16T10:47:22.491Z,-0.89
2022-12-16T10:50:09.787Z,-0.86
2022-12-16T10:53:02.031Z,-0.82
2022-12-16T10:55:53.439Z,-0.78
2022-12-16T10:58:41.857Z,-0.73
2022-12-16T11:01:40.292Z,-0.70
2022-12-16T11:04:44.447Z,-0.67
2022-12-16T11:07:41.569Z,-0.63
2022-12-16T11:10:42.607Z,-0.59
2022-12-16T11:13:31.254Z,-0.54
2022-12-16T11:16:24.526Z,-0.52
2022-12-16T11:19:10.944Z,-0.45
2022-12-16T11:21:56.162Z,-0.42
2022-12-16T11:24:41.387Z,-0.37
2022-12-16T11:27:31.879Z,-0.34
2022-12-16T11:30:18.273Z,-0.30
2022-12-16T11:33:05.089Z,-0.26
2022-12-16T11:35:52.378Z,-0.23
2022-12-16T11:38:39.885Z,-0.20
2022-12-16T11:41:26.004Z,-0.17
2022-12-16T11:44:12.183Z,-0.14
2022-12-16T11:46:57.418Z,-0.13
2022-12-16T11:49:45.698Z,-0.11
2022-12-16T11:52:37.796Z,-0.09
2022-12-16T11:55:56.063Z,-0.08
2022-12-16T11:58:37.030Z,-0.08
2022-12-16T12:01:28.293Z,-0.09
2022-12-16T12:04:13.877Z,-0.10
2022-12-16T12:07:11.229Z,-0.10
2022-12-16T12:10:00.277Z,-0.12
2022-12-16T12:12:50.972Z,-0.16
2022-12-16T12:15:40.672Z,-0.17
2022-12-16T12:18:32.451Z,-0.19
2022-12-16T12:21:22.945Z,-0.21
2022-12-16T12:24:11.055Z,-0.23
2022-12-16T12:27:02.610Z,-0.26
2022-12-16T12:29:52.389Z,-0.27
2022-12-16T12:32:44.092Z,-0.30
2022-12-16T12:35:36.264Z,-0.33
2022-12-16T12:38:26.499Z,-0.34
2022-12-16T12:41:16.884Z,-0.37
2022-12-16T12:44:09.189Z,-0.37
2022-12-16T12:46:58.981Z,-0.42
2022-12-16T12:49:47.601Z,-0.43
2022-12-16T12:52:37.479Z,-0.46
2022-12-16T12:55:27.906Z,-0.46
2022-12-16T12:58:10.463Z,-0.49
2022-12-16T13:01:01.249Z,-0.49
2022-12-16T13:03:51.177Z,-0.52
2022-12-16T13:06:36.610Z,-0.52
2022-12-16T13:09:22.139Z,-0.54
2022-12-16T13:12:26.634Z,-0.54
2022-12-16T13:15:12.750Z,-0.56
2022-12-16T13:18:16.799Z,-0.57
2022-12-16T13:21:03.330Z,-0.59
2022-12-16T13:23:50.204Z,-0.60
2022-12-16T13:26:36.464Z,-0.60
2022-12-16T13:29:36.135Z,-0.61
2022-12-16T13:32:23.417Z,-0.63
2022-12-16T13:35:17.884Z,-0.63
2022-12-16T13:38:11.622Z,-0.63
2022-12-16T13:41:12.066Z,-0.65
2022-12-16T13:44:03.264Z,-0.65
2022-12-16T13:46:58.046Z,-0.66
2022-12-16T13:49:58.415Z,-0.67
2022-12-16T13:52:50.165Z,-0.69
2022-12-16T13:55:38.257Z,-0.69
2022-12-16T13:58:26.959Z,-0.70
2022-12-16T14:01:20.366Z,-0.71
2022-12-16T14:04:06.912Z,-0.71
2022-12-16T14:06:53.347Z,-0.72
2022-12-16T14:09:45.365Z,-0.72
2022-12-16T14:12:38.209Z,-0.72
2022-12-16T14:15:25.952Z,-0.73
2022-12-16T14:18:14.857Z,-0.74
2022-12-16T14:21:06.216Z,-0.74
2022-12-16T14:23:57.629Z,-0.74
2022-12-16T14:26:44.050Z,-0.74
2022-12-16T14:29:36.948Z,-0.74
2022-12-16T14:32:36.421Z,-0.75
2022-12-16T14:35:21.570Z,-0.76
2022-12-16T14:38:06.941Z,-0.76
2022-12-16T14:40:52.248Z,-0.78
2022-12-16T14:43:39.094Z,-0.78
2022-12-16T14:46:37.064Z,-0.78
2022-12-16T14:49:27.864Z,-0.78
2022-12-16T14:52:27.389Z,-0.78
2022-12-16T14:55:12.439Z,-0.79
2022-12-16T14:57:57.427Z,-0.79
2022-12-16T15:00:42.665Z,-0.80
2022-12-16T15:03:35.895Z,-0.80
2022-12-16T15:06:22.399Z,-0.80
2022-12-16T15:09:09.411Z,-0.81
2022-12-16T15:11:55.170Z,-0.80
2022-12-16T15:14:44.497Z,-0.80
2022-12-16T15:17:36.926Z,-0.79
2022-12-16T15:20:25.572Z,-0.79
2022-12-16T15:23:11.210Z,-0.79
2022-12-16T15:26:02.173Z,-0.78
2022-12-16T15:28:56.785Z,-0.76
2022-12-16T15:31:43.330Z,-0.76
2022-12-16T15:34:42.236Z,-0.76
2022-12-16T15:37:45.237Z,-0.76
2022-12-16T15:40:47.940Z,-0.76
2022-12-16T15:43:41.627Z,-0.78
2022-12-16T15:46:34.495Z,-0.76
2022-12-16T15:49:25.093Z,-0.76
2022-12-16T15:52:10.588Z,-0.76
2022-12-16T15:55:08.171Z,-0.76
2022-12-16T15:57:54.296Z,-0.76
2022-12-16T16:00:54.250Z,-0.75
2022-12-16T16:03:41.932Z,-0.75
2022-12-16T16:06:34.437Z,-0.75
2022-12-16T16:09:19.609Z,-0.75
2022-12-16T16:12:04.683Z,-0.74
2022-12-16T16:14:49.544Z,-0.75
2022-12-16T16:17:40.620Z,-0.74
2022-12-16T16:20:32.254Z,-0.75
2022-12-16T16:23:18.208Z,-0.74
2022-12-16T16:26:04.302Z,-0.75
2022-12-16T16:28:49.581Z,-0.76
2022-12-16T16:31:34.624Z,-0.75
2022-12-16T16:34:23.614Z,-0.75
2022-12-16T16:37:11.014Z,-0.74
2022-12-16T16:39:56.664Z,-0.74
2022-12-16T16:42:42.000Z,-0.72
2022-12-16T16:45:27.704Z,-0.73
2022-12-16T16:48:19.641Z,-0.72
2022-12-16T16:51:06.522Z,-0.71
2022-12-16T16:53:51.452Z,-0.70
2022-12-16T16:56:39.378Z,-0.71
2022-12-16T16:59:24.469Z,-0.71
2022-12-16T17:02:09.500Z,-0.71
2022-12-16T17:04:55.082Z,-0.70
2022-12-16T17:07:41.673Z,-0.70
2022-12-16T17:10:27.152Z,-0.71
2022-12-16T17:13:12.524Z,-0.70
2022-12-16T17:15:58.066Z,-0.71
2022-12-16T17:18:47.772Z,-0.71
2022-12-16T17:21:35.706Z,-0.71
2022-12-16T17:24:22.369Z,-0.70
2022-12-16T17:27:22.045Z,-0.70
2022-12-16T17:30:06.981Z,-0.70
2022-12-16T17:32:52.197Z,-0.70
2022-12-16T17:35:37.617Z,-0.68
2022-12-16T17:38:22.698Z,-0.69
2022-12-16T17:41:13.813Z,-0.68
2022-12-16T17:43:59.298Z,-0.68
2022-12-16T17:46:44.740Z,-0.67
2022-12-16T17:49:30.139Z,-0.67
2022-12-16T17:52:15.562Z,-0.68
2022-12-16T17:55:09.221Z,-0.67
2022-12-16T17:57:55.747Z,-0.66
2022-12-16T18:00:41.099Z,-0.65
2022-12-16T18:03:26.224Z,-0.66
2022-12-16T18:06:14.514Z,-0.64
2022-12-16T18:09:08.110Z,-0.65
2022-12-16T18:11:49.700Z,-0.65
2022-12-16T18:14:36.183Z,-0.63
2022-12-16T18:17:21.396Z,-0.63
2022-12-16T18:20:06.502Z,-0.63
2022-12-16T18:22:51.683Z,-0.63
2022-12-16T18:25:37.403Z,-0.62
2022-12-16T18:28:23.142Z,-0.63
2022-12-16T18:31:10.066Z,-0.63
2022-12-16T18:33:55.018Z,-0.63
2022-12-16T18:36:40.276Z,-0.63
2022-12-16T18:39:25.495Z,-0.63
2022-12-16T18:42:10.667Z,-0.62
2022-12-16T18:45:00.810Z,-0.62
2022-12-16T18:47:47.135Z,-0.61
2022-12-16T18:50:37.463Z,-0.61
2022-12-16T18:53:22.873Z,-0.61
2022-12-16T18:56:16.883Z,-0.59
2022-12-16T18:59:02.289Z,-0.60
2022-12-16T19:01:47.776Z,-0.60
2022-12-16T19:04:42.770Z,-0.59
2022-12-16T19:07:29.094Z,-0.60
2022-12-16T19:10:16.839Z,-0.62
2022-12-16T19:13:07.567Z,-0.60
2022-12-16T19:15:52.776Z,-0.61
2022-12-16T19:18:38.040Z,-0.60
2022-12-16T19:21:24.439Z,-0.61
2022-12-16T19:24:09.679Z,-0.61
2022-12-16T19:27:00.073Z,-0.61
2022-12-16T19:29:45.244Z,-0.61
2022-12-16T19:32:30.618Z,-0.61
2022-12-16T19:35:15.873Z,-0.62
2022-12-16T19:38:02.456Z,-0.63
2022-12-16T19:40:47.541Z,-0.63
2022-12-16T19:43:32.800Z,-0.62
2022-12-16T19:46:23.579Z,-0.62
2022-12-16T19:49:08.887Z,-0.63
2022-12-16T19:51:53.926Z,-0.62
2022-12-16T19:54:43.235Z,-0.62
2022-12-16T19:57:28.351Z,-0.61
2022-12-16T20:00:13.691Z,-0.61
2022-12-16T20:02:59.078Z,-0.61
2022-12-16T20:05:44.641Z,-0.62
2022-12-16T20:08:31.442Z,-0.62
2022-12-16T20:11:22.111Z,-0.63
2022-12-16T20:14:10.013Z,-0.64
2022-12-16T20:16:55.366Z,-0.65
2022-12-16T20:19:42.457Z,-0.68
2022-12-16T20:22:27.725Z,-0.69
2022-12-16T20:25:12.907Z,-0.71
2022-12-16T20:27:59.723Z,-0.72
2022-12-16T20:30:44.848Z,-0.75
2022-12-16T20:34:01.223Z,-0.78
2022-12-16T20:36:48.344Z,-0.79
2022-12-16T20:39:34.021Z,-0.81
2022-12-16T20:42:19.213Z,-0.83
2022-12-16T20:45:06.048Z,-0.84
2022-12-16T20:47:51.559Z,-0.84
2022-12-16T20:50:36.929Z,-0.85
2022-12-16T20:53:22.213Z,-0.86
2022-12-16T20:56:07.712Z,-0.87
2022-12-16T20:58:56.203Z,-0.89
2022-12-16T21:02:22.269Z,-0.89
2022-12-16T21:05:04.628Z,-0.89
2022-12-16T21:07:49.991Z,-0.90
2022-12-16T21:10:35.245Z,-0.90
2022-12-16T21:13:32.412Z,-0.91
2022-12-16T21:16:18.307Z,-0.90
2022-12-16T21:19:05.466Z,-0.91
2022-12-16T21:21:51.723Z,-0.92
2022-12-16T21:24:42.440Z,-0.91
2022-12-16T21:27:47.470Z,-0.91
2022-12-16T21:30:33.179Z,-0.91
2022-12-16T21:33:33.039Z,-0.92
2022-12-16T21:36:19.902Z,-0.91
2022-12-16T21:39:05.829Z,-0.89
2022-12-16T21:41:51.214Z,-0.89
2022-12-16T21:44:37.169Z,-0.87
2022-12-16T21:47:31.391Z,-0.86
2022-12-16T21:50:16.549Z,-0.85
2022-12-16T21:53:19.787Z,-0.84
2022-12-16T21:56:12.016Z,-0.83
2022-12-16T21:58:57.461Z,-0.81
2022-12-16T22:01:45.136Z,-0.80
2022-12-16T22:04:30.472Z,-0.78
2022-12-16T22:07:15.454Z,-0.78
2022-12-16T22:10:02.891Z,-0.75
2022-12-16T22:12:48.213Z,-0.75
2022-12-16T22:15:33.782Z,-0.75
2022-12-16T22:18:19.097Z,-0.74
2022-12-16T22:21:13.041Z,-0.73
2022-12-16T22:23:58.374Z,-0.74
2022-12-16T22:26:45.264Z,-0.74
2022-12-16T22:29:31.859Z,-0.74
2022-12-16T22:32:17.358Z,-0.75
2022-12-16T22:35:02.648Z,-0.76
2022-12-16T22:37:47.776Z,-0.78
2022-12-16T22:40:33.203Z,-0.78
2022-12-16T22:43:20.035Z,-0.78
2022-12-16T22:46:05.513Z,-0.78
2022-12-16T22:48:47.254Z,-0.79
2022-12-16T22:51:33.326Z,-0.79
2022-12-16T22:54:18.951Z,-0.79
2022-12-16T22:57:04.293Z,-0.79
2022-12-16T22:59:51.765Z,-0.78
2022-12-16T23:02:37.110Z,-0.78
2022-12-16T23:05:27.342Z,-0.76
2022-12-16T23:08:13.257Z,-0.78
2022-12-16T23:11:13.112Z,-0.76
2022-12-16T23:13:58.250Z,-0.78
2022-12-16T23:16:45.249Z,-0.78
2022-12-16T23:19:30.309Z,-0.78
2022-12-16T23:22:15.713Z,-0.79
2022-12-16T23:25:00.921Z,-0.80
2022-12-16T23:27:46.517Z,-0.81
2022-12-16T23:30:31.939Z,-0.81
2022-12-16T23:33:18.865Z,-0.82
2022-12-16T23:36:03.959Z,-0.81
2022-12-16T23:38:49.310Z,-0.82
2022-12-16T23:41:34.601Z,-0.83
2022-12-16T23:44:19.928Z,-0.82
2022-12-16T23:47:05.145Z,-0.82
2022-12-16T23:49:52.001Z,-0.82
2022-12-16T23:52:37.418Z,-0.82
2022-12-16T23:55:22.659Z,-0.82
2022-12-16T23:58:15.594Z,-0.82
